Time;durP1;ratioP1;P1;durP2;ratioP2;P2;SDS_P1;SDS_P2;PMS_P1;PMS_P2;Temp;Humidity;BMP_temperature;BMP_pressure;BME280_temperature;BME280_humidity;BME280_pressure;Samples;Min_cycle;Max_cycle;Signal;HPM_P1;HPM_P2
2022/09/03 00:02:05;;;;;;;;;;;;;;;-144.99;51.64;52162.75;4992366;28;20464;-70
2022/09/03 00:04:37;;;;;;;;;;;;;;;-144.99;51.74;52215.75;4993137;28;19930;-70
2022/09/03 00:07:05;;;;;;;;;;;;;;;-144.99;51.91;52191.28;4989100;28;20044;-70
2022/09/03 00:09:34;;;;;;;;;;;;;;;-144.99;52.04;52187.19;4992160;28;19926;-71
2022/09/03 00:12:08;;;;;;;;;;;;;;;-144.99;51.91;52199.44;4991996;28;20405;-70
2022/09/03 00:14:37;;;;;;;;;;;;;;;-144.99;51.97;52191.28;4991776;28;19929;-71
2022/09/03 00:17:09;;;;;;;;;;;;;;;-144.99;52.01;52162.75;4992229;28;20447;-71
2022/09/03 00:19:40;;;;;;;;;;;;;;;-144.99;52.03;52170.91;4993456;28;19930;-71
2022/09/03 00:22:10;;;;;;;;;;;;;;;-144.99;52.19;52195.34;4992522;28;20032;-71
2022/09/03 00:24:39;;;;;;;;;;;;;;;-144.99;52.59;52203.50;4993315;28;19926;-71
2022/09/03 00:27:11;;;;;;;;;;;;;;;-144.99;52.59;52166.81;4992670;28;20017;-70
2022/09/03 00:29:40;;;;;;;;;;;;;;;-144.99;52.66;52215.75;4991292;28;19949;-69
2022/09/03 00:32:09;;;;;;;;;;;;;;;-144.99;52.38;52211.66;4986593;28;20045;-71
2022/09/03 00:34:39;;;;;;;;;;;;;;;-144.99;52.62;52162.75;4985135;28;19980;-71
2022/09/03 00:37:07;;;;;;;;;;;;;;;-144.99;53.28;52170.91;4992221;28;20393;-71
2022/09/03 00:39:33;;;;;;;;;;;;;;;-144.99;53.26;52213.69;4988755;28;19926;-71
2022/09/03 00:42:22;;;;;;;;;;;;;;;-144.99;53.52;52187.19;4992612;28;20008;-71
2022/09/03 00:44:54;;;;;;;;;;;;;;;-144.99;53.50;52142.38;4992437;28;19926;-71
2022/09/03 00:47:26;;;;;;;;;;;;;;;-144.99;53.35;52170.91;4992120;28;19929;-70
2022/09/03 00:49:59;;;;;;;;;;;;;;;-144.99;53.63;52168.84;4991602;28;19941;-70
2022/09/03 00:52:34;;;;;;;;;;;;;;;-144.99;53.91;52195.34;4983545;28;20386;-70
2022/09/03 00:55:05;;;;;;;;;;;;;;;-144.99;54.12;52195.34;4991874;28;19926;-70
2022/09/03 00:57:39;;;;;;;;;;;;;;;-144.99;54.32;52199.44;4992264;28;19926;-70
2022/09/03 01:00:08;;;;;;;;;;;;;;;-144.99;54.67;52179.06;4992219;28;19989;-70
2022/09/03 01:02:51;;;;;;;;;;;;;;;-144.99;54.88;52146.44;4992399;28;20541;-69
2022/09/03 01:05:25;;;;;;;;;;;;;;;-144.99;55.01;52197.41;4992032;28;19926;-70
2022/09/03 01:07:54;;;;;;;;;;;;;;;-144.99;54.99;52195.34;4991833;28;19926;-70
2022/09/03 01:10:30;;;;;;;;;;;;;;;-144.99;55.22;52166.81;4992395;28;19926;-69
2022/09/03 01:13:02;;;;;;;;;;;;;;;-144.99;55.63;52203.50;4990209;28;20484;-70
2022/09/03 01:15:31;;;;;;;;;;;;;;;-144.99;55.57;52187.19;4991569;28;20386;-70
2022/09/03 01:18:04;;;;;;;;;;;;;;;-144.99;55.74;52199.44;4987191;28;19930;-72
2022/09/03 01:20:37;;;;;;;;;;;;;;;-144.99;55.86;52177.00;4988407;28;20021;-72
2022/09/03 01:23:34;;;;;;;;;;;;;;;-144.99;56.10;52162.75;4991678;28;19926;-72
2022/09/03 01:26:06;;;;;;;;;;;;;;;-144.99;56.40;52215.75;4957155;28;19929;-70
2022/09/03 01:28:44;;;;;;;;;;;;;;;-144.99;56.82;52162.75;4991768;28;19929;-72
2022/09/03 01:31:19;;;;;;;;;;;;;;;-144.99;56.85;52168.84;4993824;28;19980;-70
2022/09/03 01:33:50;;;;;;;;;;;;;;;-144.99;56.96;52201.47;4995854;28;19926;-69
2022/09/03 01:36:20;;;;;;;;;;;;;;;-144.99;57.24;52181.09;4994956;28;20379;-72
2022/09/03 01:38:50;;;;;;;;;;;;;;;-144.99;57.46;52174.97;4983304;28;19930;-72
2022/09/03 01:44:18;;;;;;;;;;;;;;;-144.99;57.73;52174.97;4985715;28;19930;-72
2022/09/03 01:46:45;;;;;;;;;;;;;;;-144.99;57.97;52203.50;4990585;28;19972;-72
2022/09/03 01:49:21;;;;;;;;;;;;;;;-144.99;58.13;52191.28;4992105;28;20020;-72
2022/09/03 01:51:51;;;;;;;;;;;;;;;-144.99;58.41;52207.59;4991369;28;20071;-71
2022/09/03 01:54:38;;;;;;;;;;;;;;;-144.99;58.61;52203.50;4991915;28;20017;-72
2022/09/03 01:57:21;;;;;;;;;;;;;;;-144.99;58.75;52195.34;4991783;28;19933;-71
2022/09/03 01:59:51;;;;;;;;;;;;;;;-144.99;59.04;52195.34;4992160;28;20336;-70
2022/09/03 02:02:20;;;;;;;;;;;;;;;-144.99;59.10;52207.59;4991777;28;19925;-70
2022/09/03 02:04:55;;;;;;;;;;;;;;;-144.99;59.47;52199.44;4992321;28;19926;-71
2022/09/03 02:07:23;;;;;;;;;;;;;;;-144.99;59.69;52215.75;4985390;28;19926;-70
2022/09/03 02:09:49;;;;;;;;;;;;;;;-144.99;59.85;52166.81;4979668;28;19925;-69
2022/09/03 02:12:19;;;;;;;;;;;;;;;-144.99;59.85;52219.81;4991522;28;20473;-69
2022/09/03 02:14:45;;;;;;;;;;;;;;;-144.99;59.92;52227.97;4992199;28;19977;-70
2022/09/03 02:17:13;;;;;;;;;;;;;;;-144.99;60.43;52191.28;4991533;28;19933;-71
2022/09/03 02:19:40;;;;;;;;;;;;;;;-144.99;60.62;52199.44;4991638;28;20581;-71
2022/09/03 02:22:06;;;;;;;;;;;;;;;-144.99;60.88;52207.59;4991296;28;19968;-70
2022/09/03 02:24:33;;;;;;;;;;;;;;;-144.99;61.04;52207.59;4991422;28;20753;-70
2022/09/03 02:26:59;;;;;;;;;;;;;;;-144.99;61.28;52187.19;4991286;28;19926;-71
2022/09/03 02:29:26;;;;;;;;;;;;;;;-144.99;61.12;52223.88;4991392;28;19926;-71
2022/09/03 02:31:52;;;;;;;;;;;;;;;-144.99;61.27;52201.47;4981092;28;20377;-70
2022/09/03 02:34:20;;;;;;;;;;;;;;;-144.99;61.54;52191.28;4991172;28;19932;-70
2022/09/03 02:36:47;;;;;;;;;;;;;;;-144.99;62.11;52215.75;4977730;28;19930;-70
2022/09/03 02:39:14;;;;;;;;;;;;;;;-144.99;62.15;52170.91;4989783;28;19948;-72
2022/09/03 02:41:40;;;;;;;;;;;;;;;-144.99;62.63;52193.31;4975316;28;20025;-70
2022/09/03 02:44:09;;;;;;;;;;;;;;;-144.99;62.81;52191.28;4990631;28;20021;-70
2022/09/03 02:46:38;;;;;;;;;;;;;;;-144.99;62.83;52207.59;4990094;28;20413;-71
2022/09/03 02:49:04;;;;;;;;;;;;;;;-144.99;62.85;52185.16;4991438;28;19953;-71
2022/09/03 02:51:36;;;;;;;;;;;;;;;-144.99;62.76;52215.75;4987362;28;19930;-73
2022/09/03 02:54:03;;;;;;;;;;;;;;;-144.99;63.12;52195.34;4982767;28;20394;-70
2022/09/03 02:56:29;;;;;;;;;;;;;;;-144.99;63.55;52203.50;4987140;28;19927;-70
2022/09/03 02:58:56;;;;;;;;;;;;;;;-144.99;63.64;52236.13;4986329;28;19932;-70
2022/09/03 03:01:23;;;;;;;;;;;;;;;-144.99;63.25;52162.75;4994828;28;19929;-70
2022/09/03 03:03:49;;;;;;;;;;;;;;;-144.99;64.19;52215.75;4995197;28;19925;-71
2022/09/03 03:06:16;;;;;;;;;;;;;;;-144.99;64.10;52187.19;4991351;28;20021;-71
2022/09/03 03:08:45;;;;;;;;;;;;;;;-144.99;64.20;52211.66;4987164;28;19926;-71
2022/09/03 03:11:11;;;;;;;;;;;;;;;-144.99;64.55;52197.41;4994638;28;20479;-70
2022/09/03 03:13:37;;;;;;;;;;;;;;;-144.99;64.41;52211.66;4994151;28;19980;-72
2022/09/03 03:16:06;;;;;;;;;;;;;;;-144.99;64.59;52232.03;4994073;28;20029;-70
2022/09/03 03:18:33;;;;;;;;;;;;;;;-144.99;64.75;52191.28;4985964;28;19927;-71
2022/09/03 03:21:03;;;;;;;;;;;;;;;-144.99;64.87;52234.09;4995845;28;19930;-72
2022/09/03 03:23:31;;;;;;;;;;;;;;;-144.99;64.96;52227.97;4997681;28;19969;-73
2022/09/03 03:26:02;;;;;;;;;;;;;;;-144.99;65.48;52211.66;4997488;28;19948;-71
2022/09/03 03:28:31;;;;;;;;;;;;;;;-144.99;65.30;52215.75;4995244;28;19984;-72
2022/09/03 03:30:57;;;;;;;;;;;;;;;-144.99;65.46;52211.66;4980728;28;20016;-72
2022/09/03 03:33:23;;;;;;;;;;;;;;;-144.99;65.66;52240.19;4989926;28;20007;-70
2022/09/03 03:35:50;;;;;;;;;;;;;;;-144.99;65.36;52201.47;4994939;28;19926;-69
2022/09/03 03:38:16;;;;;;;;;;;;;;;-144.99;65.24;52207.59;4994870;28;19926;-70
2022/09/03 03:40:43;;;;;;;;;;;;;;;-144.99;65.48;52236.13;4994461;28;19926;-69
2022/09/03 03:43:10;;;;;;;;;;;;;;;-144.99;65.71;52207.59;4994118;28;20399;-69
2022/09/03 03:45:37;;;;;;;;;;;;;;;-144.99;65.48;52215.75;4994136;28;19926;-71
2022/09/03 03:48:03;;;;;;;;;;;;;;;-144.99;65.53;52181.09;4992284;28;19932;-71
2022/09/03 03:50:30;;;;;;;;;;;;;;;-144.99;65.56;52205.53;4981221;28;19930;-71
2022/09/03 03:52:59;;;;;;;;;;;;;;;-144.99;65.77;52244.28;4992271;28;20060;-70
2022/09/03 03:55:25;;;;;;;;;;;;;;;-144.99;65.85;52232.03;4975177;28;19930;-69
2022/09/03 03:57:52;;;;;;;;;;;;;;;-144.99;66.05;52232.03;4988699;28;19932;-71
2022/09/03 04:00:19;;;;;;;;;;;;;;;-144.99;66.11;52179.06;5018213;22;19926;-70
2022/09/03 04:02:46;;;;;;;;;;;;;;;-144.99;66.31;52199.44;5002415;28;19945;-71
2022/09/03 04:05:13;;;;;;;;;;;;;;;-144.99;66.43;52223.88;5001686;28;20637;-71
2022/09/03 04:07:39;;;;;;;;;;;;;;;-144.99;66.45;52183.13;5000212;28;19929;-70
2022/09/03 04:10:07;;;;;;;;;;;;;;;-144.99;66.52;52252.44;5011264;28;20013;-70
2022/09/03 04:12:33;;;;;;;;;;;;;;;-144.99;66.81;52213.69;5011368;28;20444;-71
2022/09/03 04:14:59;;;;;;;;;;;;;;;-144.99;66.92;52183.13;5012139;28;20025;-70
2022/09/03 04:17:27;;;;;;;;;;;;;;;-144.99;67.23;52195.34;5011200;28;19932;-70
2022/09/03 04:19:53;;;;;;;;;;;;;;;-144.99;67.38;52219.81;5011911;28;19925;-71
2022/09/03 04:22:20;;;;;;;;;;;;;;;-144.99;67.25;52252.44;5011267;28;19937;-70
2022/09/03 04:24:46;;;;;;;;;;;;;;;-144.99;67.36;52236.13;5011370;28;19925;-71
2022/09/03 04:27:13;;;;;;;;;;;;;;;-144.99;67.42;52211.66;5011307;28;20353;-70
2022/09/03 04:29:39;;;;;;;;;;;;;;;-144.99;67.52;52213.69;5012789;28;19932;-71
2022/09/03 04:34:51;;;;;;;;;;;;;;;-144.99;67.32;52187.19;5008631;28;19953;-71
2022/09/03 04:37:19;;;;;;;;;;;;;;;-144.99;67.59;52191.28;5013935;28;19925;-71
2022/09/03 04:39:45;;;;;;;;;;;;;;;-144.99;67.77;52217.78;5009418;28;19933;-71
2022/09/03 04:42:11;;;;;;;;;;;;;;;-144.99;67.79;52240.19;5011577;28;19926;-71
2022/09/03 04:44:39;;;;;;;;;;;;;;;-144.99;67.70;52187.19;5013485;28;19929;-72
2022/09/03 04:47:06;;;;;;;;;;;;;;;-144.99;68.00;52203.50;5010732;28;20038;-71
2022/09/03 04:49:33;;;;;;;;;;;;;;;-144.99;68.20;52215.75;5011293;28;19925;-70
2022/09/03 04:52:01;;;;;;;;;;;;;;;-144.99;68.08;52199.44;5004760;28;20000;-70
2022/09/03 04:54:27;;;;;;;;;;;;;;;-144.99;68.37;52232.03;4995929;28;19926;-69
2022/09/03 04:56:54;;;;;;;;;;;;;;;-144.99;68.42;52236.13;5006944;28;19994;-70
2022/09/03 04:59:20;;;;;;;;;;;;;;;-144.99;68.34;52244.28;5007582;28;20388;-70
2022/09/03 05:01:46;;;;;;;;;;;;;;;-144.99;68.20;52154.59;5016159;28;19947;-70
2022/09/03 05:04:13;;;;;;;;;;;;;;;-144.99;67.95;52219.81;5024036;28;20028;-70
2022/09/03 05:06:39;;;;;;;;;;;;;;;-144.99;68.10;52191.28;5030639;28;19964;-69
2022/09/03 05:09:07;;;;;;;;;;;;;;;-144.99;68.09;52211.66;5019126;28;19973;-69
2022/09/03 05:11:33;;;;;;;;;;;;;;;-144.99;67.86;52191.28;5027767;28;20424;-69
2022/09/03 05:14:00;;;;;;;;;;;;;;;-144.99;67.50;52217.78;5025373;28;20620;-68
2022/09/03 05:16:28;;;;;;;;;;;;;;;-144.99;67.29;52207.59;5028361;28;19925;-70
2022/09/03 05:18:57;;;;;;;;;;;;;;;-144.99;67.34;52211.66;5035625;28;19929;-70
2022/09/03 05:21:24;;;;;;;;;;;;;;;-144.99;67.13;52236.13;5037138;28;19914;-69
2022/09/03 05:23:51;;;;;;;;;;;;;;;-144.99;67.86;52170.91;5035550;28;19973;-69
2022/09/03 05:26:20;;;;;;;;;;;;;;;-144.99;67.57;52183.13;5035124;28;19937;-69
2022/09/03 05:28:46;;;;;;;;;;;;;;;-144.99;67.21;52211.66;5036971;28;19949;-70
2022/09/03 05:31:14;;;;;;;;;;;;;;;-144.99;66.95;52236.13;5031649;28;19946;-72
2022/09/03 05:33:41;;;;;;;;;;;;;;;-144.99;66.92;52183.13;5035189;28;19937;-71
2022/09/03 05:36:09;;;;;;;;;;;;;;;-144.99;66.52;52187.19;5037261;28;19922;-72
2022/09/03 05:38:35;;;;;;;;;;;;;;;-144.99;66.16;52191.28;5036938;28;19950;-70
2022/09/03 05:41:02;;;;;;;;;;;;;;;-144.99;65.55;52215.75;5037454;28;19932;-71
2022/09/03 05:43:30;;;;;;;;;;;;;;;-144.99;65.17;52154.59;5034059;28;19921;-70
2022/09/03 05:45:57;;;;;;;;;;;;;;;-144.99;64.41;52203.50;5027149;28;19985;-71
2022/09/03 05:48:23;;;;;;;;;;;;;;;-144.99;63.77;52174.97;5005288;28;19925;-70
2022/09/03 05:50:50;;;;;;;;;;;;;;;-144.99;62.93;52183.13;5008561;28;19934;-71
2022/09/03 05:53:17;;;;;;;;;;;;;;;-144.99;62.58;52160.72;5018839;28;19925;-71
2022/09/03 05:55:43;;;;;;;;;;;;;;;-144.99;62.08;52174.97;5019822;28;19925;-71
2022/09/03 05:58:09;;;;;;;;;;;;;;;-144.99;61.41;52164.78;5019304;28;19926;-69
2022/09/03 06:00:37;;;;;;;;;;;;;;;-144.99;60.75;52150.53;5014758;28;19930;-69
2022/09/03 06:03:04;;;;;;;;;;;;;;;-144.99;60.17;52166.81;5036325;28;19924;-72
2022/09/03 06:05:30;;;;;;;;;;;;;;;-144.99;59.73;52170.91;5036634;28;19956;-69
2022/09/03 06:07:56;;;;;;;;;;;;;;;-144.99;59.44;52162.75;5036394;28;19925;-70
2022/09/03 06:10:23;;;;;;;;;;;;;;;-144.99;59.25;52203.50;5035373;28;19956;-69
2022/09/03 06:12:51;;;;;;;;;;;;;;;-144.99;58.85;52162.75;5028362;28;19921;-70
2022/09/03 06:15:17;;;;;;;;;;;;;;;-144.99;58.25;52146.44;5027867;28;20001;-70
2022/09/03 06:17:45;;;;;;;;;;;;;;;-144.99;57.36;52126.06;5028501;28;19929;-70
2022/09/03 06:20:11;;;;;;;;;;;;;;;-144.99;56.87;52166.81;5017024;28;20020;-68
2022/09/03 06:22:38;;;;;;;;;;;;;;;-144.99;56.40;52174.97;5013046;28;19925;-69
2022/09/03 06:25:05;;;;;;;;;;;;;;;-144.99;56.00;52138.28;5012241;28;19925;-69
2022/09/03 06:27:31;;;;;;;;;;;;;;;-144.99;55.52;52166.81;5012320;28;19992;-69
2022/09/03 06:29:57;;;;;;;;;;;;;;;-144.99;54.97;52154.59;5012054;28;19925;-70
2022/09/03 06:32:24;;;;;;;;;;;;;;;-144.99;54.88;52183.13;5004224;28;19929;-68
2022/09/03 06:34:51;;;;;;;;;;;;;;;-144.99;54.29;52140.31;5014755;28;20016;-69
2022/09/03 06:37:18;;;;;;;;;;;;;;;-144.99;53.71;52166.81;5012929;28;19925;-68
2022/09/03 06:39:45;;;;;;;;;;;;;;;-144.99;53.54;52170.91;5010603;28;19937;-69
2022/09/03 06:42:12;;;;;;;;;;;;;;;-144.99;53.38;52138.28;5015578;28;19925;-71
2022/09/03 06:44:38;;;;;;;;;;;;;;;-144.99;52.93;52105.69;5015176;28;19956;-70
2022/09/03 06:47:05;;;;;;;;;;;;;;;-144.99;53.10;52166.81;5014222;28;19945;-71
2022/09/03 06:49:31;;;;;;;;;;;;;;;-144.99;52.82;52138.28;5013771;28;19983;-70
2022/09/03 06:51:59;;;;;;;;;;;;;;;-144.99;52.35;52162.75;4996683;28;20439;-72
2022/09/03 06:54:25;;;;;;;;;;;;;;;-144.99;52.35;52121.97;5007614;28;19925;-71
2022/09/03 06:56:51;;;;;;;;;;;;;;;-144.99;51.94;52168.84;5013338;28;20317;-71
2022/09/03 06:59:18;;;;;;;;;;;;;;;-144.99;50.76;52146.44;5013345;28;19941;-71
2022/09/03 07:01:44;;;;;;;;;;;;;;;-144.99;51.20;52089.38;5013147;28;20020;-70
2022/09/03 07:04:11;;;;;;;;;;;;;;;-144.99;51.15;52126.06;5014284;28;19929;-71
2022/09/03 07:06:39;;;;;;;;;;;;;;;-144.99;50.60;52117.91;5013183;28;19925;-71
2022/09/03 07:09:07;;;;;;;;;;;;;;;-144.99;50.23;52130.13;4999964;28;20460;-70
2022/09/03 07:11:34;;;;;;;;;;;;;;;-144.99;50.49;52138.28;5012817;28;19926;-68
2022/09/03 07:14:01;;;;;;;;;;;;;;;-144.99;50.45;52146.44;5013346;28;19991;-70
2022/09/03 07:16:28;;;;;;;;;;;;;;;-144.99;49.64;52138.28;5012439;28;20020;-69
2022/09/03 07:18:55;;;;;;;;;;;;;;;-144.99;49.70;52134.22;5003995;28;20457;-69
2022/09/03 07:21:23;;;;;;;;;;;;;;;-144.99;49.63;52138.28;5012865;28;19937;-68
2022/09/03 07:23:51;;;;;;;;;;;;;;;-144.99;49.28;52128.09;5013148;28;19926;-74
2022/09/03 07:26:19;;;;;;;;;;;;;;;-144.99;49.89;52101.59;5013219;28;19932;-75
2022/09/03 07:28:47;;;;;;;;;;;;;;;-144.99;49.92;52117.91;5014240;28;20308;-77
2022/09/03 07:31:16;;;;;;;;;;;;;;;-144.99;49.42;52128.09;5013385;28;19925;-76
2022/09/03 07:33:42;;;;;;;;;;;;;;;-144.99;50.19;52117.91;5000356;28;19979;-76
2022/09/03 07:36:10;;;;;;;;;;;;;;;-144.99;49.27;52109.75;5012925;28;20001;-75
2022/09/03 07:38:37;;;;;;;;;;;;;;;-144.99;50.24;52113.84;5019794;28;20000;-77
2022/09/03 07:41:04;;;;;;;;;;;;;;;-144.99;49.53;52109.75;5020736;28;20048;-79
2022/09/03 07:43:35;;;;;;;;;;;;;;;-144.99;48.93;52132.19;5017018;28;19929;-77
2022/09/03 07:46:02;;;;;;;;;;;;;;;-144.99;48.62;52077.16;5023925;28;20195;-78
2022/09/03 07:48:28;;;;;;;;;;;;;;;-144.99;47.36;52060.84;5012856;28;20005;-76
2022/09/03 07:50:58;;;;;;;;;;;;;;;-144.99;46.94;52077.16;5007145;28;19980;-77
2022/09/03 07:53:25;;;;;;;;;;;;;;;-144.99;46.70;52081.22;5013184;28;20044;-74
2022/09/03 07:55:51;;;;;;;;;;;;;;;-144.99;46.31;52085.31;5013035;28;20317;-76
2022/09/03 07:58:17;;;;;;;;;;;;;;;-144.99;45.92;52060.84;5013681;28;19925;-74
2022/09/03 08:00:46;;;;;;;;;;;;;;;-144.99;45.73;52077.16;5013177;28;20034;-75
2022/09/03 08:03:12;;;;;;;;;;;;;;;-144.99;45.14;52052.69;5012837;28;19932;-76
2022/09/03 08:05:39;;;;;;;;;;;;;;;-144.99;44.87;52040.47;5013237;28;19961;-76
2022/09/03 08:08:06;;;;;;;;;;;;;;;-144.99;45.81;52058.81;5010421;28;20044;-76
2022/09/03 08:10:34;;;;;;;;;;;;;;;-144.99;45.16;52103.66;5009557;28;19986;-76
2022/09/03 08:13:04;;;;;;;;;;;;;;;-144.99;45.19;52052.69;4996732;28;20472;-77
2022/09/03 08:15:31;;;;;;;;;;;;;;;-144.99;44.55;52064.91;5015265;28;19932;-79
2022/09/03 08:17:59;;;;;;;;;;;;;;;-144.99;45.24;52064.91;5026775;28;19936;-78
2022/09/03 08:20:25;;;;;;;;;;;;;;;-144.99;46.30;52111.78;5014737;28;19980;-75
2022/09/03 08:22:52;;;;;;;;;;;;;;;-144.99;45.85;52091.41;5012138;28;19948;-77
2022/09/03 08:25:18;;;;;;;;;;;;;;;-144.99;45.77;52075.09;5009030;28;20356;-78
2022/09/03 08:27:45;;;;;;;;;;;;;;;-144.99;45.26;52081.22;5010657;28;19930;-76
2022/09/03 08:30:11;;;;;;;;;;;;;;;-144.99;44.68;52105.69;5005055;28;19944;-76
2022/09/03 08:32:38;;;;;;;;;;;;;;;-144.99;44.36;52056.78;5008034;28;19925;-77
2022/09/03 08:35:08;;;;;;;;;;;;;;;-144.99;45.07;52073.06;5007789;28;19925;-78
2022/09/03 08:37:34;;;;;;;;;;;;;;;-144.99;45.96;52085.31;5013202;28;20003;-77
2022/09/03 08:40:02;;;;;;;;;;;;;;;-144.99;46.64;52077.16;5009017;28;20574;-77
2022/09/03 08:42:33;;;;;;;;;;;;;;;-144.99;46.27;52134.22;5012601;28;20496;-76
2022/09/03 08:45:01;;;;;;;;;;;;;;;-144.99;46.62;52119.94;5015053;28;19929;-76
2022/09/03 08:47:29;;;;;;;;;;;;;;;-144.99;46.24;52124.03;5012382;28;20347;-76
2022/09/03 08:49:58;;;;;;;;;;;;;;;-144.99;46.97;52146.44;5011888;28;19944;-77
2022/09/03 08:52:29;;;;;;;;;;;;;;;-144.99;46.30;52101.59;5011617;28;20304;-77
2022/09/03 08:55:00;;;;;;;;;;;;;;;-144.99;45.78;52109.75;5009935;28;20381;-76
2022/09/03 08:57:37;;;;;;;;;;;;;;;-144.99;45.54;52064.91;5010017;28;19930;-76
2022/09/03 09:00:04;;;;;;;;;;;;;;;-144.99;45.48;52077.16;5006986;28;19925;-78
2022/09/03 09:02:36;;;;;;;;;;;;;;;-144.99;44.53;52044.53;5008168;28;20005;-75
2022/09/03 09:05:06;;;;;;;;;;;;;;;-144.99;43.32;52052.69;5008835;28;19952;-77
2022/09/03 09:07:37;;;;;;;;;;;;;;;-144.99;42.95;52101.59;5012775;28;20044;-76
2022/09/03 09:10:10;;;;;;;;;;;;;;;-144.99;43.41;52028.22;5007389;28;19925;-77
2022/09/03 09:12:41;;;;;;;;;;;;;;;-144.99;42.50;52024.16;5007846;28;20020;-77
2022/09/03 09:15:10;;;;;;;;;;;;;;;-144.99;42.31;52016.00;5011488;28;19926;-78
2022/09/03 09:17:54;;;;;;;;;;;;;;;-144.99;42.49;52032.31;5012661;28;20017;-78
2022/09/03 09:20:25;;;;;;;;;;;;;;;-144.99;42.09;52024.16;5011798;28;19925;-78
2022/09/03 09:22:55;;;;;;;;;;;;;;;-144.99;40.78;52024.16;5012200;28;19951;-77
2022/09/03 09:25:23;;;;;;;;;;;;;;;-144.99;40.69;52034.34;5010308;28;19930;-76
2022/09/03 09:27:52;;;;;;;;;;;;;;;-144.99;40.41;52007.84;5011867;28;19926;-77
2022/09/03 09:30:19;;;;;;;;;;;;;;;-144.99;40.29;52018.03;5011245;28;19960;-76
2022/09/03 09:32:46;;;;;;;;;;;;;;;-144.99;40.10;52052.69;5008153;28;19952;-77
2022/09/03 09:35:14;;;;;;;;;;;;;;;-144.99;40.50;51999.69;5008805;28;19932;-76
2022/09/03 09:37:47;;;;;;;;;;;;;;;-144.99;40.22;52036.38;5008709;28;19933;-77
2022/09/03 09:40:24;;;;;;;;;;;;;;;-144.99;40.20;51960.97;5008621;28;20593;-75
2022/09/03 09:42:51;;;;;;;;;;;;;;;-144.99;39.10;51999.69;4660393;28;9999598;-78
2022/09/03 09:45:18;;;;;;;;;;;;;;;-144.99;40.18;51995.63;5005762;28;19929;-77
2022/09/03 09:47:49;;;;;;;;;;;;;;;-144.99;39.65;52038.44;5011005;28;20316;-77
2022/09/03 09:50:16;;;;;;;;;;;;;;;-144.99;38.68;51995.63;5009447;28;19929;-77
2022/09/03 09:52:44;;;;;;;;;;;;;;;-144.99;37.58;51958.94;4997166;28;19953;-77
2022/09/03 09:55:14;;;;;;;;;;;;;;;-144.99;37.17;51991.56;4999705;28;20019;-78
2022/09/03 09:57:42;;;;;;;;;;;;;;;-144.99;36.54;52016.00;5006169;28;20015;-78
2022/09/03 10:00:11;;;;;;;;;;;;;;;-144.99;36.33;51967.09;5011791;28;20023;-77
2022/09/03 10:02:41;;;;;;;;;;;;;;;-144.99;36.65;52028.22;5009270;28;19936;-78
2022/09/03 10:05:14;;;;;;;;;;;;;;;-144.99;37.29;52056.78;5009246;28;20401;-76
2022/09/03 10:07:41;;;;;;;;;;;;;;;-144.99;37.55;52042.50;5009394;28;19929;-78
2022/09/03 10:10:13;;;;;;;;;;;;;;;-144.99;37.40;52016.00;5016348;28;19929;-79
2022/09/03 10:12:43;;;;;;;;;;;;;;;-144.99;36.44;51997.66;5016018;28;20409;-77
2022/09/03 10:15:19;;;;;;;;;;;;;;;-144.99;35.56;51979.31;5012556;28;19929;-77
2022/09/03 10:17:52;;;;;;;;;;;;;;;-144.99;35.33;51983.41;5020030;28;19925;-77
2022/09/03 10:20:29;;;;;;;;;;;;;;;-144.99;34.93;51971.16;5023979;28;19925;-76
2022/09/03 10:22:57;;;;;;;;;;;;;;;-144.99;34.99;51934.50;5016821;28;19936;-80
2022/09/03 10:25:26;;;;;;;;;;;;;;;-144.99;34.32;51914.09;5019265;28;20016;-77
2022/09/03 10:27:55;;;;;;;;;;;;;;;-144.99;34.18;51889.66;5023818;28;19933;-77
2022/09/03 10:30:22;;;;;;;;;;;;;;;-144.99;34.77;51965.06;5025285;28;19926;-78
2022/09/03 10:32:52;;;;;;;;;;;;;;;-144.99;34.33;51928.38;5021742;28;19925;-77
2022/09/03 10:35:23;;;;;;;;;;;;;;;-144.99;34.12;51840.75;5021071;28;19935;-78
2022/09/03 10:37:53;;;;;;;;;;;;;;;-144.99;34.24;51983.41;5025463;28;20448;-78
2022/09/03 10:40:29;;;;;;;;;;;;;;;-144.99;34.02;51971.16;5024822;28;20081;-77
2022/09/03 10:43:05;;;;;;;;;;;;;;;-144.99;33.75;51852.97;5008953;28;19965;-77
2022/09/03 10:45:35;;;;;;;;;;;;;;;-144.99;33.07;51861.13;5005505;28;19929;-76
2022/09/03 10:48:17;;;;;;;;;;;;;;;-144.99;32.54;51828.50;5011634;28;19960;-77
2022/09/03 10:50:48;;;;;;;;;;;;;;;-144.99;32.42;51828.50;5009826;28;20019;-78
2022/09/03 10:53:21;;;;;;;;;;;;;;;-144.99;32.54;51999.69;5009333;28;19951;-77
2022/09/03 10:55:49;;;;;;;;;;;;;;;-144.99;32.96;52016.00;5007615;28;19972;-76
2022/09/03 10:58:30;;;;;;;;;;;;;;;-144.99;33.37;51832.59;5015351;28;19933;-76
2022/09/03 11:01:01;;;;;;;;;;;;;;;-144.99;33.30;51836.66;5007913;28;19941;-77
2022/09/03 11:03:38;;;;;;;;;;;;;;;-144.99;33.23;52016.00;5011728;28;19925;-77
2022/09/03 11:06:08;;;;;;;;;;;;;;;-144.99;32.69;51865.19;5001858;28;20024;-77
2022/09/03 11:08:38;;;;;;;;;;;;;;;-144.99;32.94;51836.66;5012187;28;19929;-79
2022/09/03 11:11:07;;;;;;;;;;;;;;;-144.99;33.00;51987.47;5011410;28;20741;-75
2022/09/03 11:13:39;;;;;;;;;;;;;;;-144.99;33.31;52038.44;5007975;28;19932;-80
2022/09/03 11:16:11;;;;;;;;;;;;;;;-144.99;33.22;51838.72;5005772;28;19926;-77
2022/09/03 11:18:41;;;;;;;;;;;;;;;-144.99;32.89;51844.81;5014195;28;19983;-80
2022/09/03 11:21:09;;;;;;;;;;;;;;;-144.99;31.82;51822.41;5015530;28;19936;-79
2022/09/03 11:23:39;;;;;;;;;;;;;;;-144.99;31.29;51793.88;5014056;28;19930;-77
2022/09/03 11:26:07;;;;;;;;;;;;;;;-144.99;31.03;51767.38;5013571;28;19976;-77
2022/09/03 11:28:40;;;;;;;;;;;;;;;-144.99;31.34;51787.75;5016094;28;19980;-77
2022/09/03 11:31:16;;;;;;;;;;;;;;;-144.99;31.11;51816.28;5016255;28;19932;-79
2022/09/03 11:33:45;;;;;;;;;;;;;;;-144.99;31.34;51783.69;5005718;28;19969;-77
2022/09/03 11:36:12;;;;;;;;;;;;;;;-144.99;31.83;51808.13;5009457;28;19930;-77
2022/09/03 11:38:38;;;;;;;;;;;;;;;-144.99;31.32;51767.38;5007717;28;19929;-79
2022/09/03 11:41:13;;;;;;;;;;;;;;;-144.99;31.72;51769.41;5011651;28;19968;-77
2022/09/03 11:43:39;;;;;;;;;;;;;;;-144.99;31.38;51791.84;5007935;28;20293;-77
2022/09/03 11:46:11;;;;;;;;;;;;;;;-144.99;31.23;51787.75;5005022;28;19930;-76
2022/09/03 11:48:40;;;;;;;;;;;;;;;-144.99;31.16;51759.22;5010619;28;19969;-77
2022/09/03 11:51:18;;;;;;;;;;;;;;;-144.99;30.58;51763.31;5012606;28;19925;-77
2022/09/03 11:53:53;;;;;;;;;;;;;;;-144.99;30.83;51816.28;5011806;28;20036;-78
2022/09/03 11:56:20;;;;;;;;;;;;;;;-144.99;31.22;51783.69;5009539;28;19969;-78
2022/09/03 11:58:46;;;;;;;;;;;;;;;-144.99;31.76;51852.97;5007707;28;20312;-79
2022/09/03 12:01:14;;;;;;;;;;;;;;;-144.99;31.99;51846.84;5001657;28;20016;-78
2022/09/03 12:03:44;;;;;;;;;;;;;;;-144.99;31.49;51830.56;5010168;28;19925;-78
2022/09/03 12:06:21;;;;;;;;;;;;;;;-144.99;31.15;51861.13;5012796;28;20033;-77
2022/09/03 12:09:02;;;;;;;;;;;;;;;-144.99;31.63;51816.28;5026877;28;19929;-80
2022/09/03 12:11:38;;;;;;;;;;;;;;;-144.99;31.20;51781.63;5025383;28;19932;-76
2022/09/03 12:14:10;;;;;;;;;;;;;;;-144.99;30.98;51828.50;5010338;28;19925;-78
2022/09/03 12:16:55;;;;;;;;;;;;;;;-144.99;30.51;51812.22;5003000;28;19976;-79
2022/09/03 12:19:26;;;;;;;;;;;;;;;-144.99;30.69;51799.97;5006356;28;20009;-78
2022/09/03 12:21:54;;;;;;;;;;;;;;;-144.99;30.52;51791.84;5004108;28;19930;-78
2022/09/03 12:24:22;;;;;;;;;;;;;;;-144.99;30.17;51779.59;4999562;28;19929;-79
2022/09/03 12:26:48;;;;;;;;;;;;;;;-144.99;30.10;51783.69;5015451;28;20037;-79
2022/09/03 12:29:20;;;;;;;;;;;;;;;-144.99;30.29;51785.72;5002385;28;20603;-80
2022/09/03 12:31:49;;;;;;;;;;;;;;;-144.99;30.10;51836.66;5004483;28;20013;-78
2022/09/03 12:34:16;;;;;;;;;;;;;;;-144.99;30.84;51808.13;5008290;28;20466;-77
2022/09/03 12:36:45;;;;;;;;;;;;;;;-144.99;30.86;51808.13;5004846;28;20324;-77
2022/09/03 12:39:13;;;;;;;;;;;;;;;-144.99;30.36;51799.97;5005289;28;19930;-79
2022/09/03 12:41:52;;;;;;;;;;;;;;;-144.99;30.42;51804.06;5003262;28;19981;-79